createdAt,value
2019-03-25T00:00:38.857Z,20.75
2019-03-25T00:01:39.357Z,20.72
2019-03-25T00:02:38.881Z,20.72
2019-03-25T00:03:38.903Z,20.79
2019-03-25T00:04:38.941Z,20.73
2019-03-25T00:06:39.054Z,20.60
2019-03-25T00:07:39.023Z,20.61
2019-03-25T00:08:39.411Z,20.72
2019-03-25T00:09:39.141Z,20.71
2019-03-25T00:12:39.181Z,20.75
2019-03-25T00:13:39.223Z,20.69
2019-03-25T00:14:39.250Z,20.73
2019-03-25T00:16:39.660Z,20.60
2019-03-25T00:17:39.394Z,20.66
2019-03-25T00:18:39.430Z,20.64
2019-03-25T00:19:39.404Z,20.66
2019-03-25T00:20:39.443Z,20.66
2019-03-25T00:21:39.512Z,20.64
2019-03-25T00:22:39.551Z,20.64
2019-03-25T00:23:39.890Z,20.58
2019-03-25T00:24:39.593Z,20.57
2019-03-25T00:25:39.663Z,20.61
2019-03-25T00:26:39.694Z,20.57
2019-03-25T00:27:39.663Z,20.60
2019-03-25T00:28:39.755Z,20.57
2019-03-25T00:29:39.777Z,20.57
2019-03-25T00:30:40.052Z,20.61
2019-03-25T00:31:39.786Z,20.58
2019-03-25T00:32:39.817Z,20.57
2019-03-25T00:33:39.846Z,20.57
2019-03-25T00:34:39.879Z,20.57
2019-03-25T00:35:39.963Z,20.63
2019-03-25T00:36:39.943Z,20.61
2019-03-25T00:37:40.324Z,20.60
2019-03-25T00:38:40.000Z,20.60
2019-03-25T00:39:40.036Z,20.56
2019-03-25T00:40:40.114Z,20.60
2019-03-25T00:41:40.100Z,20.57
2019-03-25T00:42:40.176Z,20.60
2019-03-25T00:43:40.163Z,20.60
2019-03-25T00:44:40.495Z,20.57
2019-03-25T00:45:40.222Z,20.60
2019-03-25T00:47:40.341Z,20.56
2019-03-25T00:48:40.315Z,20.57
2019-03-25T00:49:40.347Z,20.57
2019-03-25T00:50:40.391Z,20.54
2019-03-25T00:51:40.826Z,20.54
2019-03-25T00:53:40.480Z,20.53
2019-03-25T00:54:49.536Z,20.60
2019-03-25T00:55:40.536Z,20.56
2019-03-25T00:56:40.618Z,20.60
2019-03-25T00:57:40.667Z,20.53
2019-03-25T00:58:40.988Z,20.56
2019-03-25T00:59:40.661Z,20.51
2019-03-25T01:00:40.696Z,20.53
2019-03-25T01:01:40.778Z,20.53
2019-03-25T01:02:40.817Z,20.46
2019-03-25T01:03:40.794Z,20.44
2019-03-25T01:04:40.826Z,20.56
2019-03-25T01:05:41.206Z,20.50
2019-03-25T01:06:40.931Z,20.42
2019-03-25T01:07:40.968Z,20.53
2019-03-25T01:08:41.097Z,20.46
2019-03-25T01:09:41.027Z,20.44
2019-03-25T01:10:41.010Z,20.56
2019-03-25T01:11:49.086Z,20.44
2019-03-25T01:12:41.069Z,20.41
2019-03-25T01:13:41.162Z,20.44
2019-03-25T01:14:41.282Z,20.48
2019-03-25T01:15:41.168Z,20.42
2019-03-25T01:16:41.202Z,20.46
2019-03-25T01:17:41.286Z,20.40
2019-03-25T01:18:41.562Z,20.50
2019-03-25T01:19:41.348Z,20.44
2019-03-25T01:20:41.325Z,20.46
2019-03-25T01:21:41.406Z,20.46
2019-03-25T01:22:41.431Z,20.48
2019-03-25T01:23:41.414Z,20.50
2019-03-25T01:24:41.445Z,20.44
2019-03-25T01:25:41.778Z,20.44
2019-03-25T01:26:41.559Z,20.41
2019-03-25T01:27:41.544Z,20.42
2019-03-25T01:29:41.652Z,20.54
2019-03-25T01:30:41.697Z,20.41
2019-03-25T01:31:42.017Z,20.42
2019-03-25T01:32:41.698Z,20.46
2019-03-25T01:33:41.734Z,20.46
2019-03-25T01:34:41.848Z,20.54
2019-03-25T01:35:41.797Z,20.42
2019-03-25T01:36:41.830Z,20.44
2019-03-25T01:37:42.212Z,20.42
2019-03-25T01:38:41.901Z,20.40
2019-03-25T01:39:41.974Z,20.42
2019-03-25T01:40:41.955Z,20.41
2019-03-25T01:41:41.979Z,20.40
2019-03-25T01:42:42.070Z,20.42
2019-03-25T01:43:42.402Z,20.41
2019-03-25T01:44:42.092Z,20.37
2019-03-25T01:45:42.161Z,20.40
2019-03-25T01:46:42.141Z,20.34
2019-03-25T01:47:42.217Z,20.38
2019-03-25T01:48:42.248Z,20.35
2019-03-25T01:49:42.291Z,20.35
2019-03-25T01:50:42.567Z,20.30
2019-03-25T01:51:42.303Z,20.35
2019-03-25T01:52:42.331Z,20.35
2019-03-25T01:53:42.407Z,20.31
2019-03-25T01:54:42.439Z,20.30
2019-03-25T01:55:42.419Z,20.31
2019-03-25T01:56:42.454Z,20.30
2019-03-25T01:57:42.838Z,20.35
2019-03-25T01:58:42.510Z,20.26
2019-03-25T01:59:42.603Z,20.35
2019-03-25T02:00:42.581Z,20.31
2019-03-25T02:01:42.656Z,20.33
2019-03-25T02:02:42.686Z,20.30
2019-03-25T02:03:42.819Z,20.26
2019-03-25T02:04:43.049Z,20.23
2019-03-25T02:05:42.784Z,20.27
2019-03-25T02:06:42.812Z,20.23
2019-03-25T02:07:42.802Z,20.26
2019-03-25T02:08:42.824Z,20.23
2019-03-25T02:09:42.860Z,20.23
2019-03-25T02:11:42.968Z,20.15
2019-03-25T02:12:43.303Z,20.15
2019-03-25T02:13:42.979Z,20.15
2019-03-25T02:14:43.013Z,20.20
2019-03-25T02:15:43.070Z,20.15
2019-03-25T02:16:43.075Z,20.16
2019-03-25T02:17:43.161Z,20.17
2019-03-25T02:18:43.198Z,20.15
2019-03-25T02:19:43.466Z,20.20
2019-03-25T02:20:43.252Z,20.16
2019-03-25T02:21:43.283Z,20.15
2019-03-25T02:22:43.471Z,20.17
2019-03-25T02:23:43.297Z,20.15
2019-03-25T02:24:43.333Z,20.07
2019-03-25T02:25:43.406Z,20.04
2019-03-25T02:26:43.690Z,20.04
2019-03-25T02:27:43.465Z,20.00
2019-03-25T02:28:43.498Z,20.00
2019-03-25T02:29:43.481Z,20.02
2019-03-25T02:30:43.562Z,20.00
2019-03-25T02:31:43.591Z,20.01
2019-03-25T02:32:43.575Z,20.02
2019-03-25T02:33:43.956Z,19.94
2019-03-25T02:34:43.674Z,19.92
2019-03-25T02:35:43.730Z,19.90
2019-03-25T02:36:43.700Z,19.95
2019-03-25T02:37:43.777Z,19.89
2019-03-25T02:38:43.822Z,19.95
2019-03-25T02:39:43.799Z,19.92
2019-03-25T02:40:44.177Z,19.87
2019-03-25T02:41:43.906Z,19.90
2019-03-25T02:42:43.939Z,19.90
2019-03-25T02:43:43.917Z,19.92
2019-03-25T02:44:43.954Z,19.86
2019-03-25T02:45:44.046Z,19.90
2019-03-25T02:46:44.058Z,19.94
2019-03-25T02:47:44.352Z,19.86
2019-03-25T02:48:44.073Z,19.80
2019-03-25T02:49:44.150Z,19.87
2019-03-25T02:50:44.129Z,19.83
2019-03-25T02:51:44.211Z,19.87
2019-03-25T02:52:44.250Z,19.82
2019-03-25T02:53:44.241Z,19.83
2019-03-25T02:54:44.605Z,19.79
2019-03-25T02:55:44.348Z,19.80
2019-03-25T02:56:44.332Z,19.79
2019-03-25T02:57:44.406Z,19.82
2019-03-25T02:58:44.429Z,19.82
2019-03-25T02:59:44.410Z,19.80
2019-03-25T03:00:44.443Z,19.78
2019-03-25T03:01:44.824Z,19.79
2019-03-25T03:02:44.503Z,19.76
2019-03-25T03:03:44.591Z,19.75
2019-03-25T03:04:44.565Z,19.78
2019-03-25T03:05:44.673Z,19.80
2019-03-25T03:06:44.655Z,19.75
2019-03-25T03:07:44.705Z,19.78
2019-03-25T03:08:47.468Z,19.82
2019-03-25T03:09:44.767Z,19.82
2019-03-25T03:10:44.802Z,19.72
2019-03-25T03:11:44.782Z,19.83
2019-03-25T03:12:44.812Z,19.65
2019-03-25T03:13:44.899Z,19.70
2019-03-25T03:14:44.988Z,19.61
2019-03-25T03:15:45.252Z,19.62
2019-03-25T03:16:44.938Z,19.49
2019-03-25T03:17:44.969Z,19.60
2019-03-25T03:18:45.047Z,19.55
2019-03-25T03:19:45.077Z,19.42
2019-03-25T03:20:45.057Z,19.43
2019-03-25T03:21:45.142Z,19.46
2019-03-25T03:22:45.481Z,19.42
2019-03-25T03:23:45.155Z,19.40
2019-03-25T03:24:45.193Z,19.27
2019-03-25T03:25:57.420Z,19.30
2019-03-25T03:26:45.290Z,19.28
2019-03-25T03:27:45.325Z,19.24
2019-03-25T03:28:45.305Z,19.24
2019-03-25T03:29:45.685Z,19.15
2019-03-25T03:30:45.432Z,19.17
2019-03-25T03:31:45.410Z,19.12
2019-03-25T03:33:45.536Z,19.07
2019-03-25T03:34:45.491Z,19.01
2019-03-25T03:35:46.694Z,18.97
2019-03-25T03:36:45.919Z,18.96
2019-03-25T03:37:45.592Z,19.02
2019-03-25T03:38:45.662Z,18.91
2019-03-25T03:39:45.703Z,19.01
2019-03-25T03:40:45.673Z,18.87
2019-03-25T03:41:45.759Z,18.91
2019-03-25T03:42:45.733Z,18.79
2019-03-25T03:43:46.120Z,18.99
2019-03-25T03:44:45.805Z,18.94
2019-03-25T03:45:45.890Z,18.97
2019-03-25T03:46:45.858Z,18.87
2019-03-25T03:47:45.891Z,18.89
2019-03-25T03:48:45.973Z,18.78
2019-03-25T03:49:46.296Z,18.86
2019-03-25T03:50:46.037Z,18.93
2019-03-25T03:51:46.021Z,18.87
2019-03-25T03:52:46.090Z,18.83
2019-03-25T03:53:46.122Z,18.79
2019-03-25T03:54:46.165Z,18.79
2019-03-25T03:55:46.447Z,18.75
2019-03-25T03:56:46.227Z,18.82
2019-03-25T03:57:46.256Z,18.79
2019-03-25T03:58:46.230Z,18.74
2019-03-25T03:59:46.305Z,18.76
2019-03-25T04:00:46.339Z,18.76
2019-03-25T04:01:46.623Z,18.72
2019-03-25T04:02:46.356Z,18.75
2019-03-25T04:03:46.384Z,18.69
2019-03-25T04:04:46.495Z,18.72
2019-03-25T04:05:46.499Z,18.72
2019-03-25T04:06:46.526Z,18.76
2019-03-25T04:08:46.544Z,18.62
2019-03-25T04:09:46.922Z,18.62
2019-03-25T04:12:46.715Z,18.60
2019-03-25T04:13:46.841Z,18.64
2019-03-25T04:14:46.763Z,18.56
2019-03-25T04:15:47.058Z,18.56
2019-03-25T04:16:46.781Z,18.59
2019-03-25T04:17:46.969Z,18.60
2019-03-25T04:18:46.895Z,18.54
2019-03-25T04:19:46.897Z,18.59
2019-03-25T04:20:46.899Z,18.60
2019-03-25T04:21:46.996Z,18.62
2019-03-25T04:23:47.345Z,18.59
2019-03-25T04:24:47.026Z,18.57
2019-03-25T04:25:47.058Z,18.59
2019-03-25T04:26:47.137Z,18.59
2019-03-25T04:27:47.111Z,18.49
2019-03-25T04:28:47.196Z,18.56
2019-03-25T04:29:47.170Z,18.50
2019-03-25T04:30:47.558Z,18.47
2019-03-25T04:31:47.245Z,18.51
2019-03-25T04:32:47.268Z,18.53
2019-03-25T04:33:47.347Z,18.59
2019-03-25T04:34:47.376Z,18.54
2019-03-25T04:35:47.355Z,18.53
2019-03-25T04:36:47.390Z,18.49
2019-03-25T04:37:47.722Z,18.53
2019-03-25T04:38:47.495Z,18.44
2019-03-25T04:39:47.478Z,18.44
2019-03-25T04:40:47.558Z,18.44
2019-03-25T04:41:47.589Z,18.47
2019-03-25T04:42:47.631Z,18.47
2019-03-25T04:43:47.653Z,18.49
2019-03-25T04:44:47.934Z,18.50
2019-03-25T04:45:47.662Z,18.47
2019-03-25T04:46:47.755Z,18.42
2019-03-25T04:49:47.974Z,18.39
2019-03-25T04:50:47.867Z,18.41
2019-03-25T04:51:48.198Z,18.38
2019-03-25T04:52:47.917Z,18.38
2019-03-25T04:53:47.953Z,18.38
2019-03-25T04:54:47.979Z,18.38
2019-03-25T04:55:47.959Z,18.31
2019-03-25T04:56:48.047Z,18.38
2019-03-25T04:57:48.074Z,18.29
2019-03-25T04:58:48.409Z,18.35
2019-03-25T04:59:48.079Z,18.28
2019-03-25T05:00:48.188Z,18.29
2019-03-25T05:01:48.204Z,18.31
2019-03-25T05:02:48.335Z,18.31
2019-03-25T05:03:48.257Z,18.26
2019-03-25T05:04:48.229Z,18.26
2019-03-25T05:05:48.615Z,18.20
2019-03-25T05:06:48.295Z,18.19
2019-03-25T05:07:48.328Z,18.19
2019-03-25T05:08:48.411Z,18.11
2019-03-25T05:09:48.439Z,18.17
2019-03-25T05:10:48.465Z,18.10
2019-03-25T05:11:48.494Z,18.09
2019-03-25T05:12:48.832Z,18.11
2019-03-25T05:13:48.559Z,18.16
2019-03-25T05:14:48.592Z,18.04
2019-03-25T05:15:48.619Z,18.09
2019-03-25T05:16:48.598Z,18.10
2019-03-25T05:17:48.690Z,18.09
2019-03-25T05:18:48.703Z,17.99
2019-03-25T05:19:49.032Z,18.01
2019-03-25T05:20:48.714Z,17.96
2019-03-25T05:21:48.763Z,17.96
2019-03-25T05:22:48.786Z,17.99
2019-03-25T05:23:48.854Z,17.98
2019-03-25T05:24:48.886Z,17.84
2019-03-25T05:25:48.932Z,17.81
2019-03-25T05:26:51.199Z,17.84
2019-03-25T05:27:48.934Z,17.83
2019-03-25T05:28:49.010Z,17.83
2019-03-25T05:29:49.045Z,17.89
2019-03-25T05:30:49.028Z,17.86
2019-03-25T05:31:49.097Z,17.81
2019-03-25T05:32:49.079Z,17.81
2019-03-25T05:33:49.466Z,17.83
2019-03-25T05:34:49.140Z,17.80
2019-03-25T05:35:49.171Z,17.81
2019-03-25T05:36:49.246Z,17.84
2019-03-25T05:37:49.282Z,17.80
2019-03-25T05:38:49.253Z,17.89
2019-03-25T05:39:49.292Z,17.89
2019-03-25T05:40:49.667Z,17.84
2019-03-25T05:41:49.407Z,17.83
2019-03-25T05:42:49.428Z,17.84
2019-03-25T05:43:49.456Z,17.79
2019-03-25T05:44:49.434Z,17.84
2019-03-25T05:45:49.530Z,17.77
2019-03-25T05:46:49.564Z,17.83
2019-03-25T05:47:49.877Z,17.77
2019-03-25T05:48:49.558Z,17.87
2019-03-25T05:49:49.746Z,17.91
2019-03-25T05:50:49.625Z,17.84
2019-03-25T05:51:49.706Z,17.87
2019-03-25T05:52:49.679Z,17.84
2019-03-25T05:53:49.712Z,17.80
2019-03-25T05:54:50.101Z,17.81
2019-03-25T05:55:49.867Z,17.86
2019-03-25T05:56:49.848Z,17.84
2019-03-25T05:57:49.873Z,17.87
2019-03-25T05:58:49.861Z,17.84
2019-03-25T05:59:49.940Z,17.84
2019-03-25T06:00:49.916Z,17.87
2019-03-25T06:01:50.324Z,17.83
2019-03-25T06:02:49.980Z,17.83
2019-03-25T06:03:50.011Z,17.83
2019-03-25T06:04:50.084Z,17.84
2019-03-25T06:05:50.120Z,17.73
2019-03-25T06:06:52.027Z,17.80
2019-03-25T06:07:50.470Z,17.84
2019-03-25T06:08:50.155Z,17.76
2019-03-25T06:09:50.245Z,17.84
2019-03-25T06:10:50.218Z,17.77
2019-03-25T06:11:50.255Z,17.86
2019-03-25T06:12:50.339Z,17.77
2019-03-25T06:13:50.658Z,17.76
2019-03-25T06:14:50.394Z,17.76
2019-03-25T06:15:50.362Z,17.74
2019-03-25T06:16:50.400Z,17.80
2019-03-25T06:17:50.471Z,17.80
2019-03-25T06:18:50.519Z,17.70
2019-03-25T06:19:50.483Z,17.71
2019-03-25T06:20:50.517Z,17.73
2019-03-25T06:21:50.544Z,17.76
2019-03-25T06:22:50.623Z,17.76
2019-03-25T06:23:50.605Z,17.73
2019-03-25T06:24:50.641Z,17.71
2019-03-25T06:25:51.046Z,17.74
2019-03-25T06:26:50.692Z,17.76
2019-03-25T06:27:50.778Z,17.71
2019-03-25T06:28:50.754Z,17.77
2019-03-25T06:29:50.783Z,17.65
2019-03-25T06:30:50.810Z,17.79
2019-03-25T06:31:50.859Z,17.68
2019-03-25T06:32:51.175Z,17.70
2019-03-25T06:33:50.952Z,17.74
2019-03-25T06:34:50.946Z,17.74
2019-03-25T06:35:50.964Z,17.76
2019-03-25T06:36:51.001Z,17.76
2019-03-25T06:37:51.075Z,17.73
2019-03-25T06:38:51.103Z,17.74
2019-03-25T06:39:51.429Z,17.77
2019-03-25T06:40:51.163Z,17.70
2019-03-25T06:41:51.193Z,17.68
2019-03-25T06:42:51.172Z,17.73
2019-03-25T06:43:51.276Z,17.81
2019-03-25T06:44:51.288Z,17.76
2019-03-25T06:45:51.316Z,17.74
2019-03-25T06:46:51.645Z,17.71
2019-03-25T06:47:51.333Z,17.80
2019-03-25T06:48:51.361Z,17.77
2019-03-25T06:49:51.396Z,17.83
2019-03-25T06:50:51.538Z,17.89
2019-03-25T06:51:51.453Z,17.81
2019-03-25T06:52:51.517Z,17.80
2019-03-25T06:53:51.849Z,17.86
2019-03-25T06:54:51.534Z,17.87
2019-03-25T06:55:51.619Z,17.81
2019-03-25T06:56:51.594Z,17.83
2019-03-25T06:57:51.669Z,17.87
2019-03-25T06:58:51.703Z,17.83
2019-03-25T06:59:51.739Z,17.81
2019-03-25T07:00:52.061Z,17.80
2019-03-25T07:01:51.804Z,17.81
2019-03-25T07:02:51.833Z,17.81
2019-03-25T07:03:51.845Z,17.77
2019-03-25T07:04:51.827Z,17.83
2019-03-25T07:05:51.876Z,17.86
2019-03-25T07:06:51.937Z,17.77
2019-03-25T07:07:52.282Z,17.84
2019-03-25T07:08:52.005Z,17.79
2019-03-25T07:09:52.038Z,17.77
2019-03-25T07:10:52.011Z,17.84
2019-03-25T07:11:52.086Z,17.70
2019-03-25T07:12:52.117Z,17.73
2019-03-25T07:13:52.108Z,17.81
2019-03-25T07:14:52.478Z,17.81
2019-03-25T07:16:52.191Z,17.76
2019-03-25T07:17:52.218Z,17.79
2019-03-25T07:18:52.302Z,17.83
2019-03-25T07:20:52.313Z,17.71
2019-03-25T07:21:52.387Z,17.68
2019-03-25T07:22:52.369Z,17.77
2019-03-25T07:23:52.551Z,17.76
2019-03-25T07:24:52.429Z,17.80
2019-03-25T07:25:52.518Z,17.71
2019-03-25T07:26:52.489Z,17.74
2019-03-25T07:27:52.866Z,17.73
2019-03-25T07:28:52.807Z,17.71
2019-03-25T07:29:52.583Z,17.77
2019-03-25T07:30:52.674Z,17.71
2019-03-25T07:31:52.639Z,17.68
2019-03-25T07:32:52.720Z,17.77
2019-03-25T07:33:53.150Z,17.80
2019-03-25T07:34:52.777Z,17.73
2019-03-25T07:35:52.760Z,17.79
2019-03-25T07:36:52.784Z,17.74
2019-03-25T07:37:52.820Z,17.77
2019-03-25T07:38:52.893Z,17.71
2019-03-25T07:39:53.226Z,17.83
2019-03-25T07:40:53.056Z,17.71
2019-03-25T07:41:52.995Z,17.71
2019-03-25T07:42:52.969Z,17.77
2019-03-25T07:43:53.000Z,17.77
2019-03-25T07:44:53.084Z,17.81
2019-03-25T07:45:53.113Z,17.80
2019-03-25T07:46:53.441Z,17.80
2019-03-25T07:47:53.116Z,17.81
2019-03-25T07:48:53.152Z,17.71
2019-03-25T07:49:53.237Z,17.73
2019-03-25T07:50:53.363Z,17.77
2019-03-25T07:51:53.241Z,17.81
2019-03-25T07:52:53.268Z,17.87
2019-03-25T07:53:53.598Z,17.83
2019-03-25T07:54:53.328Z,17.89
2019-03-25T07:55:53.372Z,17.91
2019-03-25T07:56:53.399Z,17.99
2019-03-25T07:57:53.472Z,17.95
2019-03-25T07:58:53.521Z,17.95
2019-03-25T07:59:53.493Z,17.99
2019-03-25T08:00:53.557Z,17.99
2019-03-25T08:01:53.544Z,18.07
2019-03-25T08:02:53.620Z,18.09
2019-03-25T08:04:53.638Z,18.11
2019-03-25T08:05:53.732Z,18.07
2019-03-25T08:06:54.015Z,18.13
2019-03-25T08:07:53.768Z,18.13
2019-03-25T08:09:03.347Z,18.16
2019-03-25T08:09:53.797Z,18.17
2019-03-25T08:10:53.893Z,18.16
2019-03-25T08:11:53.833Z,18.11
2019-03-25T08:12:53.906Z,18.19
2019-03-25T08:13:53.951Z,18.21
2019-03-25T08:14:54.017Z,18.19
2019-03-25T08:15:53.967Z,18.19
2019-03-25T08:16:53.985Z,18.28
2019-03-25T08:17:54.086Z,18.25
2019-03-25T08:18:54.100Z,18.28
2019-03-25T08:19:54.383Z,18.25
2019-03-25T08:20:54.121Z,18.28
2019-03-25T08:21:54.189Z,18.29
2019-03-25T08:22:54.166Z,18.29
2019-03-25T08:23:54.258Z,18.35
2019-03-25T08:24:54.348Z,18.34
2019-03-25T08:25:54.616Z,18.35
2019-03-25T08:26:54.291Z,18.25
2019-03-25T08:27:59.869Z,18.31
2019-03-25T08:28:54.350Z,18.29
2019-03-25T08:29:54.444Z,18.49
2019-03-25T08:30:54.508Z,18.38
2019-03-25T08:31:54.443Z,18.36
2019-03-25T08:32:54.538Z,18.39
2019-03-25T08:33:54.552Z,18.35
2019-03-25T08:34:54.581Z,18.41
2019-03-25T08:35:54.561Z,18.42
2019-03-25T08:36:54.587Z,18.38
2019-03-25T08:37:54.969Z,18.39
2019-03-25T08:38:54.697Z,18.46
2019-03-25T08:39:54.679Z,18.36
2019-03-25T08:40:54.711Z,18.47
2019-03-25T08:41:54.743Z,18.46
2019-03-25T08:42:54.825Z,18.49
2019-03-25T08:43:54.852Z,18.41
2019-03-25T08:44:55.179Z,18.42
2019-03-25T08:45:54.913Z,18.47
2019-03-25T08:46:54.942Z,18.47
2019-03-25T08:48:55.015Z,18.49
2019-03-25T08:50:55.017Z,18.49
2019-03-25T08:51:55.049Z,18.44
2019-03-25T08:54:55.191Z,18.62
2019-03-25T08:55:55.215Z,18.59
2019-03-25T08:56:55.267Z,18.60
2019-03-25T08:58:55.311Z,18.57
2019-03-25T08:59:57.483Z,18.62
2019-03-25T09:00:55.320Z,18.59
2019-03-25T09:01:55.347Z,18.64
2019-03-25T09:02:55.391Z,18.62
2019-03-25T09:03:55.756Z,18.57
2019-03-25T09:04:55.500Z,18.59
2019-03-25T09:05:55.465Z,18.60
2019-03-25T09:06:55.496Z,18.57
2019-03-25T09:07:55.582Z,18.57
2019-03-25T09:08:55.611Z,18.62
2019-03-25T09:09:55.646Z,18.56
2019-03-25T09:10:55.970Z,18.60
2019-03-25T09:11:55.709Z,18.57
2019-03-25T09:12:55.737Z,18.59
2019-03-25T09:13:55.764Z,18.59
2019-03-25T09:14:55.795Z,18.56
2019-03-25T09:15:55.781Z,18.56
2019-03-25T09:16:55.802Z,18.54
2019-03-25T09:17:55.841Z,18.62
2019-03-25T09:18:55.864Z,18.60
2019-03-25T09:19:55.898Z,18.62
2019-03-25T09:20:55.934Z,18.57
2019-03-25T09:21:55.955Z,18.54
2019-03-25T09:22:56.039Z,18.64
2019-03-25T09:23:56.018Z,18.60
2019-03-25T09:24:56.092Z,18.59
2019-03-25T09:25:56.125Z,18.60
2019-03-25T09:26:56.102Z,18.59
2019-03-25T09:27:56.186Z,18.62
2019-03-25T09:28:56.466Z,18.57
2019-03-25T09:29:56.201Z,18.60
2019-03-25T09:30:56.286Z,18.60
2019-03-25T09:31:56.268Z,18.50
2019-03-25T09:32:56.341Z,18.68
2019-03-25T09:33:56.370Z,18.59
2019-03-25T09:34:56.362Z,18.50
2019-03-25T09:35:56.859Z,18.62
2019-03-25T09:36:56.462Z,18.50
2019-03-25T09:37:56.493Z,18.51
2019-03-25T09:38:56.468Z,18.51
2019-03-25T09:39:56.499Z,18.62
2019-03-25T09:40:56.588Z,18.62
2019-03-25T09:41:56.566Z,18.62
2019-03-25T09:42:56.652Z,18.59
2019-03-25T09:43:56.623Z,18.64
2019-03-25T09:44:56.655Z,18.59
2019-03-25T09:45:56.736Z,18.60
2019-03-25T09:46:56.766Z,18.59
2019-03-25T09:47:56.748Z,18.57
2019-03-25T09:48:57.075Z,18.59
2019-03-25T09:49:56.862Z,18.57
2019-03-25T09:50:56.835Z,18.60
2019-03-25T09:51:56.911Z,18.54
2019-03-25T09:52:56.942Z,18.62
2019-03-25T09:53:56.927Z,18.59
2019-03-25T09:54:56.994Z,18.57
2019-03-25T09:55:56.993Z,18.53
2019-03-25T09:56:57.069Z,18.64
2019-03-25T09:57:57.096Z,18.60
2019-03-25T09:58:57.131Z,18.60
2019-03-25T09:59:57.113Z,18.59
2019-03-25T10:00:57.189Z,18.54
2019-03-25T10:01:57.518Z,18.62
2019-03-25T10:03:57.231Z,18.56
2019-03-25T10:04:57.311Z,18.65
2019-03-25T10:05:57.296Z,18.69
2019-03-25T10:06:57.329Z,18.60
2019-03-25T10:07:57.348Z,18.64
2019-03-25T10:08:57.735Z,18.64
2019-03-25T10:09:57.467Z,18.68
2019-03-25T10:10:57.523Z,18.66
2019-03-25T10:11:57.474Z,18.71
2019-03-25T10:12:57.504Z,18.71
2019-03-25T10:13:57.594Z,18.74
2019-03-25T10:14:57.564Z,18.72
2019-03-25T10:15:57.645Z,18.71
2019-03-25T10:16:57.628Z,18.72
2019-03-25T10:17:57.661Z,18.75
2019-03-25T10:18:57.690Z,18.83
2019-03-25T10:19:57.787Z,18.75
2019-03-25T10:20:58.122Z,18.76
2019-03-25T10:21:57.783Z,18.75
2019-03-25T10:22:57.882Z,18.78
2019-03-25T10:23:57.882Z,18.76
2019-03-25T10:24:57.900Z,18.84
2019-03-25T10:25:57.960Z,18.76
2019-03-25T10:26:58.258Z,18.84
2019-03-25T10:27:58.049Z,18.82
2019-03-25T10:28:58.002Z,18.76
2019-03-25T10:29:58.092Z,18.78
2019-03-25T10:30:58.074Z,18.78
2019-03-25T10:31:58.143Z,18.89
2019-03-25T10:32:58.187Z,18.86
2019-03-25T10:33:58.514Z,18.87
2019-03-25T10:34:58.191Z,18.87
2019-03-25T10:35:58.212Z,18.86
2019-03-25T10:36:58.301Z,18.84
2019-03-25T10:37:58.289Z,18.91
2019-03-25T10:38:58.357Z,18.83
2019-03-25T10:39:58.349Z,18.94
2019-03-25T10:40:58.377Z,18.83
2019-03-25T10:41:58.443Z,18.79
2019-03-25T10:42:58.531Z,18.78
2019-03-25T10:43:58.516Z,18.83
2019-03-25T10:44:58.536Z,18.89
2019-03-25T10:45:58.571Z,18.83
2019-03-25T10:46:58.610Z,18.90
2019-03-25T10:47:58.630Z,18.89
2019-03-25T10:48:58.628Z,18.89
2019-03-25T10:49:58.692Z,18.82
2019-03-25T10:50:58.683Z,18.79
2019-03-25T10:51:58.754Z,18.83
2019-03-25T10:52:58.900Z,18.75
2019-03-25T10:53:58.913Z,18.72
2019-03-25T10:55:58.827Z,18.74
2019-03-25T10:56:58.865Z,18.82
2019-03-25T10:57:58.939Z,18.75
2019-03-25T10:58:59.272Z,18.78
2019-03-25T10:59:58.957Z,18.82
2019-03-25T11:00:58.989Z,18.78
2019-03-25T11:01:59.061Z,18.82
2019-03-25T11:02:59.100Z,18.76
2019-03-25T11:03:59.076Z,18.79
2019-03-25T11:04:59.405Z,18.79
2019-03-25T11:05:59.140Z,18.76
2019-03-25T11:06:59.213Z,18.76
2019-03-25T11:07:59.188Z,18.76
2019-03-25T11:08:59.225Z,18.74
2019-03-25T11:09:59.257Z,18.76
2019-03-25T11:10:59.286Z,18.75
2019-03-25T11:11:59.367Z,18.79
2019-03-25T11:12:59.399Z,18.72
2019-03-25T11:13:59.429Z,18.78
2019-03-25T11:14:59.458Z,18.65
2019-03-25T11:15:59.489Z,18.69
2019-03-25T11:16:59.820Z,18.75
2019-03-25T11:17:59.504Z,18.71
2019-03-25T11:18:59.530Z,18.69
2019-03-25T11:19:59.613Z,18.64
2019-03-25T11:20:59.591Z,18.72
2019-03-25T11:21:59.627Z,18.72
2019-03-25T11:22:59.653Z,18.72
2019-03-25T11:23:59.993Z,18.66
2019-03-25T11:24:59.775Z,18.69
2019-03-25T11:25:59.746Z,18.71
2019-03-25T11:26:59.772Z,18.72
2019-03-25T11:27:59.861Z,18.74
2019-03-25T11:29:04.617Z,18.74
2019-03-25T11:29:59.928Z,18.74
2019-03-25T11:31:00.349Z,18.76
2019-03-25T11:31:59.983Z,18.82
2019-03-25T11:32:59.965Z,18.79
2019-03-25T11:33:59.991Z,18.74
2019-03-25T11:35:00.028Z,18.83
2019-03-25T11:36:00.108Z,18.90
2019-03-25T11:37:00.084Z,18.87
2019-03-25T11:38:00.473Z,18.87
2019-03-25T11:39:00.157Z,18.89
2019-03-25T11:40:00.375Z,18.78
2019-03-25T11:41:00.371Z,18.87
2019-03-25T11:42:00.300Z,18.94
2019-03-25T11:43:00.262Z,18.87
2019-03-25T11:44:00.318Z,18.97
2019-03-25T11:45:00.375Z,18.86
2019-03-25T11:46:00.419Z,18.86
2019-03-25T11:47:00.438Z,18.94
2019-03-25T11:48:00.468Z,18.96
2019-03-25T11:49:00.466Z,18.89
2019-03-25T11:50:00.484Z,18.91
2019-03-25T11:51:00.816Z,18.90
2019-03-25T11:52:00.544Z,18.89
2019-03-25T11:53:00.659Z,18.94
2019-03-25T11:54:00.664Z,18.94
2019-03-25T11:55:00.725Z,18.83
2019-03-25T11:56:00.677Z,18.89
2019-03-25T11:57:00.703Z,18.91
2019-03-25T11:58:00.734Z,18.89
2019-03-25T11:59:02.906Z,18.86
2019-03-25T12:00:00.843Z,18.82
2019-03-25T12:01:00.822Z,18.89
2019-03-25T12:02:00.899Z,18.94
2019-03-25T12:03:01.037Z,18.91
2019-03-25T12:04:00.963Z,18.93
2019-03-25T12:05:00.959Z,18.84
2019-03-25T12:06:01.020Z,18.75
2019-03-25T12:07:01.052Z,18.94
2019-03-25T12:08:01.102Z,18.87
2019-03-25T12:09:01.068Z,18.91
2019-03-25T12:10:01.445Z,18.93
2019-03-25T12:11:01.129Z,18.93
2019-03-25T12:12:01.163Z,18.94
2019-03-25T12:13:01.239Z,18.93
2019-03-25T12:14:01.277Z,18.84
2019-03-25T12:15:01.743Z,18.86
2019-03-25T12:16:01.654Z,18.86
2019-03-25T12:17:01.313Z,18.86
2019-03-25T12:18:01.409Z,18.87
2019-03-25T12:19:01.431Z,18.86
2019-03-25T12:20:01.418Z,18.87
2019-03-25T12:21:01.444Z,18.93
2019-03-25T12:22:01.550Z,18.93
2019-03-25T12:23:01.966Z,18.90
2019-03-25T12:24:01.586Z,18.90
2019-03-25T12:25:01.719Z,18.89
2019-03-25T12:26:01.647Z,18.89
2019-03-25T12:27:01.720Z,18.96
2019-03-25T12:28:01.659Z,18.93
2019-03-25T12:29:01.686Z,18.93
2019-03-25T12:30:01.803Z,18.96
2019-03-25T12:31:01.794Z,18.83
2019-03-25T12:32:01.774Z,19.06
2019-03-25T12:33:04.325Z,18.89
2019-03-25T12:35:01.921Z,18.91
2019-03-25T12:36:02.363Z,18.89
2019-03-25T12:37:02.057Z,18.89
2019-03-25T12:38:02.022Z,18.94
2019-03-25T12:39:02.043Z,18.96
2019-03-25T12:40:02.044Z,18.94
2019-03-25T12:41:02.100Z,18.96
2019-03-25T12:42:02.137Z,18.94
2019-03-25T12:43:02.473Z,19.05
2019-03-25T12:44:02.144Z,19.01
2019-03-25T12:45:02.249Z,18.99
2019-03-25T12:46:02.350Z,19.02
2019-03-25T12:47:02.252Z,19.06
2019-03-25T12:48:02.263Z,19.05
2019-03-25T12:49:02.348Z,19.01
2019-03-25T12:50:02.386Z,19.09
2019-03-25T12:51:02.426Z,19.02
2019-03-25T12:52:02.394Z,18.99
2019-03-25T12:53:02.478Z,19.02
2019-03-25T12:54:02.456Z,19.07
2019-03-25T12:55:02.482Z,19.02
2019-03-25T12:56:02.863Z,19.06
2019-03-25T12:57:02.551Z,19.05
2019-03-25T12:58:02.574Z,19.05
2019-03-25T12:59:02.661Z,19.05
2019-03-25T13:00:02.687Z,18.99
2019-03-25T13:01:02.682Z,19.01
2019-03-25T13:02:03.059Z,19.06
2019-03-25T13:03:02.796Z,19.01
2019-03-25T13:04:02.784Z,19.01
2019-03-25T13:05:02.801Z,19.02
2019-03-25T13:06:02.834Z,19.07
2019-03-25T13:07:02.876Z,19.02
2019-03-25T13:08:03.305Z,19.06
2019-03-25T13:09:02.921Z,18.96
2019-03-25T13:10:03.007Z,19.05
2019-03-25T13:11:02.989Z,19.06
2019-03-25T13:12:03.024Z,19.06
2019-03-25T13:13:03.128Z,19.10
2019-03-25T13:14:03.426Z,19.10
2019-03-25T13:15:03.164Z,19.10
2019-03-25T13:16:03.192Z,19.09
2019-03-25T13:17:03.222Z,19.09
2019-03-25T13:18:03.250Z,19.15
2019-03-25T13:19:03.282Z,19.12